createdAt,value
2023-03-01T00:00:20.022Z,74.11
2023-03-01T00:01:28.572Z,74.10
2023-03-01T00:02:32.549Z,74.69
2023-03-01T00:03:37.464Z,74.85
2023-03-01T00:04:45.655Z,74.50
2023-03-01T00:05:51.624Z,75.51
2023-03-01T00:06:59.725Z,76.56
2023-03-01T00:08:07.741Z,75.26
2023-03-01T00:09:19.257Z,75.24
2023-03-01T00:10:24.807Z,75.00
2023-03-01T00:11:30.958Z,75.47
2023-03-01T00:12:33.844Z,75.68
2023-03-01T00:13:40.968Z,76.21
2023-03-01T00:14:47.708Z,74.68
2023-03-01T00:15:52.259Z,75.25
2023-03-01T00:16:55.627Z,74.85
2023-03-01T00:18:09.662Z,74.93
2023-03-01T00:19:23.279Z,75.24
2023-03-01T00:20:25.942Z,74.63
2023-03-01T00:21:30.761Z,75.48
2023-03-01T00:22:35.664Z,75.20
2023-03-01T00:23:45.172Z,74.60
2023-03-01T00:24:48.051Z,76.02
2023-03-01T00:25:51.563Z,76.29
2023-03-01T00:26:58.283Z,76.57
2023-03-01T00:28:00.998Z,75.81
2023-03-01T00:29:04.029Z,75.88
2023-03-01T00:30:07.236Z,75.97
2023-03-01T00:31:13.311Z,75.81
2023-03-01T00:32:18.692Z,74.58
2023-03-01T00:33:26.046Z,74.38
2023-03-01T00:34:28.791Z,75.03
2023-03-01T00:35:34.413Z,74.66
2023-03-01T00:36:38.920Z,74.80
2023-03-01T00:37:43.073Z,75.82
2023-03-01T00:38:47.738Z,75.98
2023-03-01T00:39:50.767Z,76.92
2023-03-01T00:40:53.886Z,75.26
2023-03-01T00:41:58.499Z,74.77
2023-03-01T00:43:05.758Z,74.67
2023-03-01T00:44:09.877Z,74.47
2023-03-01T00:45:15.244Z,73.55
2023-03-01T00:46:20.448Z,74.11
2023-03-01T00:47:24.752Z,75.40
2023-03-01T00:48:30.128Z,74.91
2023-03-01T00:49:33.782Z,74.03
2023-03-01T00:50:37.351Z,73.50
2023-03-01T00:51:43.086Z,74.50
2023-03-01T00:52:46.190Z,75.30
2023-03-01T00:53:54.909Z,74.26
2023-03-01T00:54:59.372Z,75.02
2023-03-01T00:56:03.149Z,74.29
2023-03-01T00:57:06.880Z,74.25
2023-03-01T00:58:10.155Z,74.48
2023-03-01T00:59:15.229Z,75.25
2023-03-01T01:00:18.248Z,75.14
2023-03-01T01:01:28.825Z,75.71
2023-03-01T01:02:36.288Z,74.80
2023-03-01T01:03:38.786Z,74.44
2023-03-01T01:04:45.603Z,73.93
2023-03-01T01:05:50.085Z,74.75
2023-03-01T01:06:54.675Z,73.62
2023-03-01T01:07:59.108Z,74.97
2023-03-01T01:09:08.302Z,74.88
2023-03-01T01:10:18.303Z,75.66
2023-03-01T01:11:23.428Z,76.84
2023-03-01T01:12:34.950Z,76.32
2023-03-01T01:13:40.098Z,76.52
2023-03-01T01:14:47.417Z,75.50
2023-03-01T01:15:51.025Z,75.70
2023-03-01T01:16:57.483Z,76.10
2023-03-01T01:18:02.076Z,76.14
2023-03-01T01:19:11.535Z,76.54
2023-03-01T01:20:16.768Z,76.37
2023-03-01T01:21:24.488Z,77.07
2023-03-01T01:22:31.988Z,77.93
2023-03-01T01:23:38.291Z,76.81
2023-03-01T01:24:43.510Z,77.56
2023-03-01T01:25:51.006Z,77.15
2023-03-01T01:26:53.453Z,77.36
2023-03-01T01:27:56.506Z,77.25
2023-03-01T01:29:02.366Z,76.69
2023-03-01T01:30:10.174Z,76.10
2023-03-01T01:31:16.979Z,76.40
2023-03-01T01:32:19.597Z,76.66
2023-03-01T01:33:22.667Z,78.27
2023-03-01T01:34:25.026Z,77.96
2023-03-01T01:35:28.927Z,78.13
2023-03-01T01:36:34.819Z,77.95
2023-03-01T01:37:37.553Z,78.11
2023-03-01T01:38:48.172Z,77.85
2023-03-01T01:39:52.193Z,77.90
2023-03-01T01:40:56.146Z,78.03
2023-03-01T01:41:59.159Z,78.63
2023-03-01T01:43:02.655Z,78.03
2023-03-01T01:44:27.797Z,77.80
2023-03-01T01:45:37.694Z,78.57
2023-03-01T01:46:44.296Z,79.58
2023-03-01T01:47:50.761Z,79.39
2023-03-01T01:49:02.002Z,79.76
2023-03-01T01:50:08.142Z,79.32
2023-03-01T01:51:19.533Z,79.42
2023-03-01T01:52:26.952Z,78.83
2023-03-01T01:53:30.298Z,79.33
2023-03-01T01:54:55.417Z,79.93
2023-03-01T01:56:07.609Z,80.56
2023-03-01T01:57:17.492Z,79.94
2023-03-01T01:58:27.124Z,81.29
2023-03-01T01:59:34.294Z,81.27
2023-03-01T02:00:44.487Z,81.49
2023-03-01T02:01:50.181Z,81.35
2023-03-01T02:02:59.907Z,81.75
2023-03-01T02:04:08.613Z,82.04
2023-03-01T02:05:38.309Z,81.05
2023-03-01T02:06:57.664Z,80.48
2023-03-01T02:08:01.707Z,80.39
2023-03-01T02:09:10.522Z,80.29
2023-03-01T02:10:13.249Z,80.69
2023-03-01T02:11:16.985Z,80.13
2023-03-01T02:12:30.522Z,80.32
2023-03-01T02:13:35.438Z,80.22
2023-03-01T02:14:38.328Z,80.93
2023-03-01T02:15:42.862Z,81.83
2023-03-01T02:16:48.753Z,81.25
2023-03-01T02:17:58.693Z,81.92
2023-03-01T02:19:03.084Z,81.59
2023-03-01T02:20:28.327Z,79.70
2023-03-01T02:21:57.922Z,80.81
2023-03-01T02:23:01.190Z,81.50
2023-03-01T02:24:35.312Z,81.59
2023-03-01T02:26:16.015Z,82.66
2023-03-01T02:27:23.102Z,82.53
2023-03-01T02:28:48.761Z,81.53
2023-03-01T02:29:52.930Z,82.03
2023-03-01T02:31:17.508Z,82.47
2023-03-01T02:32:26.326Z,82.78
2023-03-01T02:33:34.196Z,82.90
2023-03-01T02:34:37.542Z,82.67
2023-03-01T02:35:43.815Z,83.26
2023-03-01T02:36:54.074Z,82.63
2023-03-01T02:37:58.325Z,82.13
2023-03-01T02:39:05.416Z,81.54
2023-03-01T02:40:16.203Z,81.51
2023-03-01T02:41:21.582Z,81.71
2023-03-01T02:42:32.108Z,82.74
2023-03-01T02:43:36.811Z,81.92
2023-03-01T02:44:44.037Z,83.39
2023-03-01T02:45:54.584Z,82.75
2023-03-01T02:47:14.223Z,83.07
2023-03-01T02:48:19.529Z,83.63
2023-03-01T02:49:32.964Z,84.51
2023-03-01T02:50:53.950Z,85.39
2023-03-01T02:52:05.658Z,85.22
2023-03-01T02:53:16.329Z,85.98
2023-03-01T02:54:49.702Z,85.46
2023-03-01T02:55:52.068Z,85.53
2023-03-01T02:56:54.909Z,85.55
2023-03-01T02:57:59.039Z,85.90
2023-03-01T02:59:03.678Z,86.02
2023-03-01T03:00:11.889Z,86.23
2023-03-01T03:01:16.522Z,87.71
2023-03-01T03:02:37.525Z,87.02
2023-03-01T03:03:52.144Z,87.03
2023-03-01T03:04:54.782Z,87.80
2023-03-01T03:05:57.638Z,87.80
2023-03-01T03:07:07.356Z,87.07
2023-03-01T03:08:13.392Z,86.96
2023-03-01T03:09:20.656Z,87.18
2023-03-01T03:10:44.544Z,88.25
2023-03-01T03:11:47.950Z,87.85
2023-03-01T03:12:55.684Z,88.10
2023-03-01T03:13:59.414Z,88.54
2023-03-01T03:15:10.145Z,88.62
2023-03-01T03:16:16.824Z,88.94
2023-03-01T03:17:20.137Z,88.45
2023-03-01T03:18:33.608Z,88.67
2023-03-01T03:19:38.846Z,89.30
2023-03-01T03:20:43.432Z,89.44
2023-03-01T03:21:47.376Z,89.08
2023-03-01T03:22:52.957Z,88.69
2023-03-01T03:23:58.374Z,89.94
2023-03-01T03:25:03.298Z,90.18
2023-03-01T03:26:06.964Z,90.11
2023-03-01T03:27:10.194Z,90.45
2023-03-01T03:28:14.271Z,89.73
2023-03-01T03:29:16.995Z,90.09
2023-03-01T03:30:20.796Z,90.93
2023-03-01T03:31:24.214Z,90.64
2023-03-01T03:32:28.795Z,90.48
2023-03-01T03:33:32.404Z,90.44
2023-03-01T03:34:34.458Z,90.17
2023-03-01T03:35:46.284Z,89.28
2023-03-01T03:36:58.052Z,90.31
2023-03-01T03:38:07.635Z,91.09
2023-03-01T03:39:11.097Z,90.93
2023-03-01T03:40:16.623Z,90.76
2023-03-01T03:41:19.456Z,91.36
2023-03-01T03:42:23.817Z,91.02
2023-03-01T03:43:28.797Z,90.88
2023-03-01T03:44:30.832Z,91.13
2023-03-01T03:45:37.800Z,91.29
2023-03-01T03:46:43.201Z,91.73
2023-03-01T03:47:45.754Z,91.47
2023-03-01T03:48:51.230Z,91.88
2023-03-01T03:49:53.183Z,91.88
2023-03-01T03:50:59.647Z,92.64
2023-03-01T03:52:04.900Z,91.47
2023-03-01T03:53:12.844Z,91.55
2023-03-01T03:54:15.960Z,91.07
2023-03-01T03:55:20.963Z,90.78
2023-03-01T03:56:28.908Z,91.16
2023-03-01T03:57:34.130Z,91.76
2023-03-01T03:58:37.649Z,90.11
2023-03-01T03:59:39.994Z,90.90
2023-03-01T04:00:45.746Z,92.06
2023-03-01T04:01:50.578Z,91.94
2023-03-01T04:02:57.634Z,92.13
2023-03-01T04:04:05.345Z,93.57
2023-03-01T04:05:10.984Z,93.93
2023-03-01T04:06:15.445Z,93.75
2023-03-01T04:07:21.746Z,94.03
2023-03-01T04:08:27.763Z,93.65
2023-03-01T04:09:31.370Z,93.15
2023-03-01T04:10:46.714Z,93.03
2023-03-01T04:11:51.304Z,93.80
2023-03-01T04:12:59.677Z,92.97
2023-03-01T04:14:05.948Z,92.56
2023-03-01T04:15:16.075Z,93.20
2023-03-01T04:16:24.085Z,92.70
2023-03-01T04:17:30.479Z,93.31
2023-03-01T04:18:36.203Z,93.42
2023-03-01T04:19:40.157Z,93.16
2023-03-01T04:20:43.609Z,93.15
2023-03-01T04:21:46.351Z,93.95
2023-03-01T04:23:00.432Z,93.96
2023-03-01T04:24:04.812Z,95.21
2023-03-01T04:25:09.094Z,94.50
2023-03-01T04:26:11.159Z,94.20
2023-03-01T04:27:19.884Z,94.37
2023-03-01T04:28:26.834Z,94.50
2023-03-01T04:29:32.805Z,93.77
2023-03-01T04:30:38.913Z,94.35
2023-03-01T04:31:42.314Z,93.72
2023-03-01T04:32:44.740Z,93.51
2023-03-01T04:33:53.624Z,93.71
2023-03-01T04:34:56.823Z,93.84
2023-03-01T04:36:06.975Z,93.79
2023-03-01T04:37:14.153Z,93.24
2023-03-01T04:38:21.703Z,93.43
2023-03-01T04:39:25.398Z,93.08
2023-03-01T04:40:32.839Z,92.59
2023-03-01T04:41:35.867Z,92.71
2023-03-01T04:42:38.320Z,92.94
2023-03-01T04:43:41.770Z,93.11
2023-03-01T04:44:47.412Z,92.28
2023-03-01T04:45:50.873Z,91.60
2023-03-01T04:46:56.227Z,91.52
2023-03-01T04:48:00.824Z,91.40
2023-03-01T04:49:05.234Z,90.98
2023-03-01T04:50:13.229Z,91.22
2023-03-01T04:51:16.956Z,91.93
2023-03-01T04:52:23.506Z,92.31
2023-03-01T04:53:29.898Z,91.46
2023-03-01T04:54:34.068Z,91.99
2023-03-01T04:55:39.698Z,91.57
2023-03-01T04:56:41.934Z,90.40
2023-03-01T04:57:45.970Z,90.83
2023-03-01T04:58:52.046Z,90.27
2023-03-01T04:59:56.977Z,89.64
2023-03-01T05:01:00.116Z,89.91
2023-03-01T05:02:03.532Z,89.36
2023-03-01T05:03:16.285Z,89.19
2023-03-01T05:04:19.613Z,88.36
2023-03-01T05:05:31.017Z,87.92
2023-03-01T05:06:34.778Z,88.11
2023-03-01T05:07:37.668Z,89.14
2023-03-01T05:08:41.342Z,89.55
2023-03-01T05:09:47.472Z,88.08
2023-03-01T05:10:52.639Z,87.89
2023-03-01T05:12:00.206Z,88.42
2023-03-01T05:13:09.563Z,86.77
2023-03-01T05:14:14.655Z,86.17
2023-03-01T05:15:26.963Z,85.09
2023-03-01T05:16:37.944Z,84.54
2023-03-01T05:17:45.138Z,81.98
2023-03-01T05:18:51.751Z,81.42
2023-03-01T05:19:58.212Z,80.79
2023-03-01T05:21:21.477Z,80.87
2023-03-01T05:22:27.738Z,79.79
2023-03-01T05:23:36.411Z,78.16
2023-03-01T05:24:41.845Z,77.78
2023-03-01T05:25:50.236Z,76.19
2023-03-01T05:26:57.985Z,73.98
2023-03-01T05:28:06.345Z,74.23
2023-03-01T05:29:11.569Z,75.07
2023-03-01T05:30:24.865Z,75.27
2023-03-01T05:31:36.766Z,77.04
2023-03-01T05:32:48.574Z,76.35
2023-03-01T05:33:52.858Z,74.37
2023-03-01T05:35:00.509Z,74.97
2023-03-01T05:36:07.521Z,74.38
2023-03-01T05:37:16.597Z,75.70
2023-03-01T05:38:29.194Z,73.79
2023-03-01T05:39:33.447Z,74.72
2023-03-01T05:40:40.910Z,72.79
2023-03-01T05:41:44.951Z,74.15
2023-03-01T05:42:54.763Z,74.04
2023-03-01T05:43:57.590Z,72.58
2023-03-01T05:45:01.668Z,72.45
2023-03-01T05:46:05.673Z,73.16
2023-03-01T05:47:14.150Z,73.44
2023-03-01T05:48:22.914Z,73.56
2023-03-01T05:49:25.667Z,75.02
2023-03-01T05:50:30.801Z,74.41
2023-03-01T05:51:36.120Z,74.72
2023-03-01T05:52:44.899Z,74.85
2023-03-01T05:53:48.943Z,75.28
2023-03-01T05:54:53.546Z,75.68
2023-03-01T05:56:02.490Z,77.44
2023-03-01T05:57:05.009Z,77.39
2023-03-01T05:58:11.105Z,77.42
2023-03-01T05:59:16.695Z,77.13
2023-03-01T06:00:27.265Z,76.13
2023-03-01T06:01:40.280Z,77.44
2023-03-01T06:02:46.855Z,77.45
2023-03-01T06:03:49.259Z,78.89
2023-03-01T06:04:55.329Z,79.97
2023-03-01T06:05:58.594Z,79.98
2023-03-01T06:07:00.915Z,79.37
2023-03-01T06:08:07.316Z,78.71
2023-03-01T06:09:18.709Z,77.08
2023-03-01T06:10:25.139Z,77.35
2023-03-01T06:11:42.436Z,76.52
2023-03-01T06:12:45.710Z,75.52
2023-03-01T06:13:49.354Z,73.95
2023-03-01T06:14:56.068Z,73.36
2023-03-01T06:16:00.563Z,74.12
2023-03-01T06:17:03.602Z,75.91
2023-03-01T06:19:34.032Z,78.30
2023-03-01T06:20:53.971Z,79.06
2023-03-01T06:22:06.350Z,78.86
2023-03-01T06:23:12.311Z,78.95
2023-03-01T06:24:21.559Z,78.14
2023-03-01T06:25:33.629Z,78.15
2023-03-01T06:26:40.190Z,77.24
2023-03-01T06:27:50.077Z,79.67
2023-03-01T06:28:53.845Z,79.12
2023-03-01T06:29:58.628Z,78.38
2023-03-01T06:31:13.297Z,77.16
2023-03-01T06:32:17.721Z,77.88
2023-03-01T06:33:29.727Z,76.24
2023-03-01T06:34:40.237Z,75.78
2023-03-01T06:35:43.862Z,76.67
2023-03-01T06:36:49.418Z,76.43
2023-03-01T06:37:52.911Z,76.21
2023-03-01T06:39:00.557Z,77.20
2023-03-01T06:40:14.787Z,75.54
2023-03-01T06:41:18.890Z,73.63
2023-03-01T06:42:25.239Z,72.31
2023-03-01T06:43:31.036Z,74.23
2023-03-01T06:44:45.919Z,71.85
2023-03-01T06:45:55.552Z,72.01
2023-03-01T06:48:41.894Z,69.59
2023-03-01T06:51:17.693Z,67.41
2023-03-01T06:52:23.845Z,66.21
2023-03-01T06:53:33.458Z,66.43
2023-03-01T06:54:43.410Z,66.53
2023-03-01T06:56:04.227Z,67.24
2023-03-01T06:57:12.222Z,66.38
2023-03-01T06:58:50.034Z,63.58
2023-03-01T07:00:00.092Z,64.49
2023-03-01T07:01:14.374Z,61.52
2023-03-01T07:02:17.738Z,58.46
2023-03-01T07:03:21.445Z,59.13
2023-03-01T07:04:23.868Z,57.94
2023-03-01T07:05:30.134Z,58.08
2023-03-01T07:06:36.055Z,57.14
2023-03-01T07:07:44.617Z,57.23
2023-03-01T07:08:48.742Z,56.46
2023-03-01T07:09:57.744Z,55.47
2023-03-01T07:11:05.564Z,53.92
2023-03-01T07:12:10.378Z,52.67
2023-03-01T07:13:13.024Z,52.99
2023-03-01T07:14:20.591Z,52.98
2023-03-01T07:15:28.521Z,51.98
2023-03-01T07:16:34.563Z,50.94
2023-03-01T07:17:42.088Z,47.78
2023-03-01T07:18:44.653Z,46.21
2023-03-01T07:19:48.952Z,45.10
2023-03-01T07:20:52.150Z,44.11
2023-03-01T07:22:04.955Z,45.62
2023-03-01T07:23:09.521Z,45.28
2023-03-01T07:24:16.637Z,45.28
2023-03-01T07:25:21.767Z,45.98
2023-03-01T07:26:27.719Z,45.59
2023-03-01T07:27:31.069Z,44.80
2023-03-01T07:28:40.890Z,43.58
2023-03-01T07:29:44.207Z,44.76
2023-03-01T07:30:47.621Z,44.20
2023-03-01T07:31:51.870Z,46.08
2023-03-01T07:32:58.584Z,45.25
2023-03-01T07:34:02.958Z,45.28
2023-03-01T07:35:06.542Z,45.28
2023-03-01T07:36:12.087Z,44.98
2023-03-01T07:37:15.359Z,45.17
2023-03-01T07:38:19.536Z,44.69
2023-03-01T07:39:30.633Z,44.49
2023-03-01T07:40:38.916Z,44.52
2023-03-01T07:42:11.597Z,42.05
2023-03-01T07:43:24.370Z,40.35
2023-03-01T07:45:43.872Z,40.87
2023-03-01T07:46:47.000Z,41.54
2023-03-01T07:47:51.403Z,41.36
2023-03-01T07:48:59.330Z,40.58
2023-03-01T07:50:17.079Z,40.72
2023-03-01T07:51:26.129Z,39.18
2023-03-01T07:52:31.834Z,39.69
2023-03-01T07:53:44.173Z,39.27
2023-03-01T08:01:30.633Z,41.13
2023-03-01T08:02:44.011Z,42.31
2023-03-01T08:07:06.154Z,41.07
2023-03-01T08:10:38.841Z,40.11
2023-03-01T08:12:19.056Z,40.00
2023-03-01T08:14:23.516Z,41.71
2023-03-01T08:15:47.649Z,42.54
2023-03-01T08:17:03.510Z,43.04
2023-03-01T08:20:02.292Z,42.15
2023-03-01T08:21:32.159Z,40.84
2023-03-01T08:24:18.076Z,41.15
2023-03-01T08:26:08.305Z,41.01
2023-03-01T08:28:33.898Z,44.35
2023-03-01T08:29:48.567Z,44.63
2023-03-01T08:32:25.629Z,44.61
2023-03-01T08:33:44.210Z,44.09
2023-03-01T08:34:53.618Z,43.51
2023-03-01T08:37:40.937Z,44.34
2023-03-01T08:38:49.150Z,43.68
2023-03-01T08:39:56.250Z,43.67
2023-03-01T08:41:05.208Z,42.71
2023-03-01T08:42:19.602Z,44.03
2023-03-01T08:43:28.055Z,43.25
2023-03-01T08:44:40.040Z,42.28
2023-03-01T08:45:50.657Z,42.70
2023-03-01T08:47:04.665Z,42.66
2023-03-01T08:48:22.175Z,41.79
2023-03-01T08:49:40.532Z,43.31
2023-03-01T08:50:50.213Z,43.22
2023-03-01T08:52:15.999Z,43.89
2023-03-01T08:53:41.412Z,44.84
2023-03-01T08:55:20.810Z,46.73
2023-03-01T08:57:46.311Z,47.03
2023-03-01T08:58:59.629Z,47.28
2023-03-01T09:02:26.834Z,46.92
2023-03-01T09:03:46.740Z,46.62
2023-03-01T09:07:43.098Z,47.31
2023-03-01T09:09:25.675Z,47.00
2023-03-01T09:14:51.210Z,48.32
2023-03-01T09:18:41.783Z,48.15
2023-03-01T09:19:46.656Z,48.65
2023-03-01T09:20:56.337Z,49.09
2023-03-01T09:22:06.259Z,48.67
2023-03-01T09:23:14.656Z,48.31
2023-03-01T09:24:48.886Z,48.43
2023-03-01T09:25:55.613Z,48.61
2023-03-01T09:27:40.163Z,49.22
2023-03-01T09:28:48.311Z,48.82
2023-03-01T09:29:54.364Z,50.30
2023-03-01T09:31:02.390Z,50.31
2023-03-01T09:32:06.557Z,49.25
2023-03-01T09:33:16.812Z,50.13
2023-03-01T09:34:24.949Z,51.35
2023-03-01T09:35:33.555Z,51.15
2023-03-01T09:36:39.522Z,50.76
2023-03-01T09:37:46.483Z,50.24
2023-03-01T09:38:54.315Z,50.55
2023-03-01T09:39:58.278Z,51.00
2023-03-01T09:41:05.134Z,52.21
2023-03-01T09:42:15.378Z,52.02
2023-03-01T09:43:36.796Z,52.71
2023-03-01T09:45:05.379Z,53.21
2023-03-01T09:46:14.670Z,51.90
2023-03-01T09:47:28.642Z,52.06
2023-03-01T09:48:42.482Z,52.61
2023-03-01T09:50:15.175Z,51.62
2023-03-01T09:51:33.276Z,51.58
2023-03-01T09:52:55.431Z,52.58
2023-03-01T09:54:07.802Z,52.55
2023-03-01T09:55:38.542Z,54.83
2023-03-01T09:56:53.258Z,55.07
2023-03-01T09:58:26.567Z,55.97
2023-03-01T09:59:48.369Z,56.64
2023-03-01T10:00:54.797Z,56.84
2023-03-01T10:02:36.062Z,56.73
2023-03-01T10:03:57.631Z,56.40
2023-03-01T10:05:20.744Z,56.84
2023-03-01T10:06:34.555Z,57.77
2023-03-01T10:08:28.396Z,57.42
2023-03-01T10:09:38.684Z,57.65
2023-03-01T10:10:54.630Z,57.09
2023-03-01T10:11:58.673Z,58.05
2023-03-01T10:13:12.948Z,56.41
2023-03-01T10:14:38.043Z,57.43
2023-03-01T10:15:50.794Z,58.30
2023-03-01T10:17:12.293Z,57.71
2023-03-01T10:18:22.575Z,57.23
2023-03-01T10:19:38.156Z,57.93
2023-03-01T10:20:43.737Z,59.12
2023-03-01T10:21:48.132Z,59.16
2023-03-01T10:22:59.157Z,58.74
2023-03-01T10:24:22.892Z,59.28
2023-03-01T10:26:07.755Z,58.59
2023-03-01T10:27:42.575Z,59.27
2023-03-01T10:29:10.547Z,61.50
2023-03-01T10:30:35.642Z,60.52
2023-03-01T10:32:00.349Z,59.49
2023-03-01T10:33:24.992Z,60.02
2023-03-01T10:34:37.147Z,61.45
2023-03-01T10:35:43.250Z,60.18
2023-03-01T10:36:52.852Z,61.52
2023-03-01T10:38:08.913Z,61.60
2023-03-01T10:39:16.048Z,61.47
2023-03-01T10:40:26.338Z,62.10
2023-03-01T10:41:31.452Z,59.55
2023-03-01T10:42:48.809Z,59.55
2023-03-01T10:43:59.032Z,59.65
2023-03-01T10:45:26.690Z,61.25
2023-03-01T10:46:29.092Z,62.38
2023-03-01T10:49:29.367Z,61.10
2023-03-01T10:50:33.336Z,60.52
2023-03-01T10:51:37.286Z,60.84
2023-03-01T10:52:42.530Z,60.27
2023-03-01T10:53:53.067Z,57.71
2023-03-01T10:55:25.805Z,59.86
2023-03-01T10:56:28.326Z,60.23
2023-03-01T10:57:40.061Z,58.43
2023-03-01T10:59:21.914Z,60.51
2023-03-01T11:00:28.598Z,59.65
2023-03-01T11:01:36.561Z,60.69
2023-03-01T11:02:40.848Z,61.55
2023-03-01T11:03:46.408Z,60.00
2023-03-01T11:05:01.286Z,60.34
2023-03-01T11:06:12.545Z,60.16
2023-03-01T11:07:15.183Z,60.10
2023-03-01T11:08:34.864Z,59.67
2023-03-01T11:09:39.570Z,58.54
2023-03-01T11:10:42.823Z,58.63
2023-03-01T11:11:46.012Z,59.72
2023-03-01T11:12:48.115Z,60.89
2023-03-01T11:14:10.522Z,60.05
2023-03-01T11:15:24.374Z,60.82
2023-03-01T11:16:34.386Z,58.93
2023-03-01T11:17:53.143Z,57.64
2023-03-01T11:19:03.140Z,59.34
2023-03-01T11:20:13.793Z,60.24
2023-03-01T11:21:17.780Z,60.92
2023-03-01T11:22:23.283Z,60.64
2023-03-01T11:23:25.823Z,60.38
2023-03-01T11:24:37.484Z,60.56
2023-03-01T11:25:47.344Z,59.81
2023-03-01T11:26:55.109Z,60.09
2023-03-01T11:27:59.850Z,59.01
2023-03-01T11:29:08.645Z,58.50
2023-03-01T11:30:32.454Z,57.64
2023-03-01T11:31:36.579Z,58.16
2023-03-01T11:32:48.591Z,58.79
2023-03-01T11:34:16.144Z,58.56
2023-03-01T11:35:24.226Z,59.47
2023-03-01T11:36:59.327Z,61.17
2023-03-01T11:38:10.470Z,60.76
2023-03-01T11:39:29.621Z,58.74
2023-03-01T11:40:56.748Z,57.88
2023-03-01T11:42:22.889Z,58.75
2023-03-01T11:43:54.406Z,57.57
2023-03-01T11:45:06.058Z,57.58
2023-03-01T11:46:34.057Z,57.77
2023-03-01T11:48:02.466Z,59.51
2023-03-01T11:49:18.502Z,59.07
2023-03-01T11:50:35.027Z,56.91
2023-03-01T11:56:43.337Z,58.08
2023-03-01T12:32:55.433Z,59.40
2023-03-01T12:34:41.232Z,60.37
2023-03-01T12:36:16.075Z,60.87
2023-03-01T12:37:28.794Z,60.02
2023-03-01T12:39:13.435Z,59.70
2023-03-01T12:41:00.985Z,59.09
2023-03-01T12:51:42.435Z,57.45
2023-03-01T12:53:24.509Z,57.71
2023-03-01T12:54:40.314Z,58.38
2023-03-01T12:55:51.610Z,57.64
2023-03-01T12:56:58.823Z,57.77
2023-03-01T12:58:29.867Z,57.76
2023-03-01T12:59:48.607Z,58.01
2023-03-01T13:01:31.526Z,58.06
2023-03-01T13:02:51.128Z,58.45
2023-03-01T13:04:35.088Z,59.33
2023-03-01T13:06:07.267Z,59.73
2023-03-01T13:07:41.590Z,60.66
2023-03-01T13:09:33.825Z,59.81
2023-03-01T13:11:41.166Z,59.27
2023-03-01T13:14:03.040Z,59.47
2023-03-01T13:15:36.900Z,60.11
2023-03-01T13:18:38.375Z,60.03
2023-03-01T13:22:04.833Z,57.22
2023-03-01T13:23:44.502Z,56.33
2023-03-01T13:25:11.713Z,59.13
2023-03-01T13:26:26.650Z,58.82
2023-03-01T13:27:38.477Z,57.69
2023-03-01T13:29:03.680Z,58.74
2023-03-01T13:30:58.188Z,58.30
2023-03-01T13:32:28.847Z,59.24
2023-03-01T13:34:39.266Z,59.76
2023-03-01T13:36:25.104Z,60.42
2023-03-01T13:37:47.957Z,59.46
2023-03-01T13:39:24.647Z,59.85
2023-03-01T13:40:30.120Z,60.40
2023-03-01T13:42:01.841Z,61.82
2023-03-01T13:43:32.719Z,61.76
2023-03-01T13:45:04.577Z,60.79
2023-03-01T13:46:25.351Z,62.38
2023-03-01T13:47:29.655Z,61.31
2023-03-01T13:48:35.080Z,62.78
2023-03-01T13:50:00.160Z,61.51
2023-03-01T13:51:11.042Z,61.85
2023-03-01T13:52:57.085Z,62.68
2023-03-01T13:54:02.581Z,61.24
2023-03-01T13:55:20.414Z,62.09
2023-03-01T13:56:27.497Z,62.24
2023-03-01T13:57:37.741Z,63.17
2023-03-01T13:58:53.433Z,62.75
2023-03-01T13:59:55.471Z,61.67
2023-03-01T14:01:06.989Z,63.09
2023-03-01T14:02:14.553Z,62.01
2023-03-01T14:03:26.610Z,61.26
2023-03-01T14:04:41.093Z,62.36
2023-03-01T14:06:16.182Z,60.42
2023-03-01T14:07:26.936Z,60.91
2023-03-01T14:08:33.701Z,61.22
2023-03-01T14:09:49.394Z,61.76
2023-03-01T14:11:08.113Z,61.28
2023-03-01T14:12:31.625Z,61.02
2023-03-01T14:13:50.788Z,62.16
2023-03-01T14:14:56.529Z,63.53
2023-03-01T14:16:37.416Z,62.99
2023-03-01T14:18:01.904Z,64.29
2023-03-01T14:19:32.748Z,63.29
2023-03-01T14:20:53.805Z,62.90
2023-03-01T14:22:09.930Z,64.08
2023-03-01T14:23:26.013Z,65.49
2023-03-01T14:24:36.222Z,65.70
2023-03-01T14:25:43.042Z,66.50
2023-03-01T14:26:47.613Z,65.76
2023-03-01T14:28:05.479Z,66.49
2023-03-01T14:29:33.328Z,65.47
2023-03-01T14:30:43.488Z,65.27
2023-03-01T14:31:53.445Z,65.95
2023-03-01T14:33:05.041Z,64.56
2023-03-01T14:34:26.253Z,65.11
2023-03-01T14:35:35.606Z,65.65
2023-03-01T14:36:41.559Z,66.43
2023-03-01T14:37:45.175Z,65.93
2023-03-01T14:38:53.493Z,65.74
2023-03-01T14:40:07.593Z,65.57
2023-03-01T14:41:27.105Z,66.09
2023-03-01T14:42:38.022Z,65.94
2023-03-01T14:43:59.854Z,67.56
2023-03-01T14:45:14.388Z,66.69
2023-03-01T14:46:28.804Z,67.96
2023-03-01T14:47:44.169Z,67.05
2023-03-01T14:49:29.146Z,67.64
2023-03-01T14:50:41.908Z,68.10
2023-03-01T14:52:09.990Z,68.51
2023-03-01T14:53:27.136Z,68.84
2023-03-01T14:54:49.421Z,67.87
2023-03-01T14:56:04.762Z,67.58
2023-03-01T14:57:27.620Z,68.56
2023-03-01T14:58:34.081Z,67.65
2023-03-01T14:59:40.710Z,68.30
2023-03-01T15:01:07.019Z,69.52
2023-03-01T15:02:22.731Z,68.96
2023-03-01T15:03:32.363Z,68.73
2023-03-01T15:09:02.006Z,71.64
2023-03-01T15:10:24.961Z,70.75
2023-03-01T15:11:37.223Z,71.64
2023-03-01T15:12:51.137Z,71.36
2023-03-01T15:14:28.332Z,73.86
2023-03-01T15:15:59.310Z,72.25
2023-03-01T15:17:35.610Z,72.46
2023-03-01T15:19:06.784Z,73.33
2023-03-01T15:20:25.716Z,72.83
2023-03-01T15:21:48.209Z,73.05
2023-03-01T15:23:00.703Z,73.98
2023-03-01T15:24:30.465Z,73.50
2023-03-01T15:25:36.717Z,74.43
2023-03-01T15:28:31.526Z,73.16
2023-03-01T15:29:45.812Z,74.53
2023-03-01T15:31:31.467Z,73.55
2023-03-01T15:32:40.446Z,75.20
2023-03-01T15:33:49.647Z,76.83
2023-03-01T15:35:09.829Z,79.24
2023-03-01T15:36:41.355Z,80.53
2023-03-01T15:37:53.553Z,80.04
2023-03-01T15:39:20.978Z,81.49
2023-03-01T15:40:41.932Z,82.02
2023-03-01T15:41:50.251Z,82.72
2023-03-01T15:42:58.089Z,83.94
2023-03-01T15:44:20.321Z,84.36
2023-03-01T15:45:28.822Z,85.21
2023-03-01T15:46:38.952Z,83.90
2023-03-01T15:47:43.701Z,83.09
2023-03-01T15:49:12.983Z,81.82
2023-03-01T15:50:31.122Z,82.82
2023-03-01T15:51:41.933Z,82.52
2023-03-01T15:52:46.724Z,83.11
2023-03-01T15:53:54.893Z,82.60
2023-03-01T15:55:09.438Z,81.93
2023-03-01T15:56:18.655Z,81.96
2023-03-01T15:57:28.161Z,80.12
2023-03-01T15:58:41.674Z,80.09
2023-03-01T15:59:57.910Z,79.39
2023-03-01T16:01:19.459Z,79.04
2023-03-01T16:02:31.830Z,79.46
2023-03-01T16:03:38.187Z,78.37
2023-03-01T16:04:49.316Z,78.43
2023-03-01T16:05:56.047Z,77.74
2023-03-01T16:07:04.106Z,77.41
2023-03-01T16:08:18.625Z,75.22
2023-03-01T16:09:27.517Z,75.11
2023-03-01T16:10:32.996Z,75.22
2023-03-01T16:11:42.485Z,73.85
2023-03-01T16:12:53.002Z,74.32
2023-03-01T16:14:28.946Z,73.68
2023-03-01T16:15:54.608Z,74.97
2023-03-01T16:17:00.104Z,75.05
2023-03-01T16:18:40.516Z,75.41
2023-03-01T16:19:48.628Z,75.94
2023-03-01T16:20:56.017Z,75.31
2023-03-01T16:22:03.276Z,74.67
2023-03-01T16:23:14.033Z,73.73
2023-03-01T16:24:28.528Z,72.82
2023-03-01T16:25:43.770Z,73.17
2023-03-01T16:26:48.679Z,72.24
2023-03-01T16:28:03.040Z,72.78
2023-03-01T16:29:19.335Z,72.38
2023-03-01T16:31:02.152Z,71.32
2023-03-01T16:32:11.551Z,71.67
2023-03-01T16:33:29.466Z,71.66
2023-03-01T16:34:54.702Z,71.47
2023-03-01T16:36:16.627Z,70.24
2023-03-01T16:40:11.516Z,72.22
2023-03-01T16:41:29.108Z,73.30
2023-03-01T16:42:55.733Z,72.92
2023-03-01T16:44:57.039Z,72.88
2023-03-01T16:47:06.046Z,72.54
2023-03-01T16:48:15.704Z,73.61
2023-03-01T16:51:22.960Z,75.23
2023-03-01T16:52:48.894Z,77.04
2023-03-01T16:54:02.083Z,77.93
2023-03-01T16:56:57.358Z,79.71
2023-03-01T16:58:19.494Z,79.75
2023-03-01T16:59:29.941Z,81.87
2023-03-01T17:00:53.614Z,80.38
2023-03-01T17:02:32.157Z,81.20
2023-03-01T17:03:57.103Z,81.93
2023-03-01T17:05:10.887Z,80.86
2023-03-01T17:06:33.947Z,81.71
2023-03-01T17:08:07.808Z,81.82
2023-03-01T17:09:58.653Z,81.99
2023-03-01T17:11:13.955Z,80.97
2023-03-01T17:13:32.351Z,81.75
2023-03-01T17:14:54.176Z,81.42
2023-03-01T17:16:02.695Z,82.98
2023-03-01T17:17:12.668Z,82.42
2023-03-01T17:18:27.201Z,81.97